sensor_id;sensor_type;location;lat;lon;timestamp;temperature;humidity
52513;DHT22;38422;53.172;6.974;2022-12-18T00:02:16;-3.10;99.90
52513;DHT22;38422;53.172;6.974;2022-12-18T00:04:42;-3.00;99.90
52513;DHT22;38422;53.172;6.974;2022-12-18T00:07:08;-3.10;99.90
52513;DHT22;38422;53.172;6.974;2022-12-18T00:09:34;-3.10;99.90
52513;DHT22;38422;53.172;6.974;2022-12-18T00:12:00;-3.10;99.90
52513;DHT22;38422;53.172;6.974;2022-12-18T00:14:25;-3.10;99.90
52513;DHT22;38422;53.172;6.974;2022-12-18T00:16:51;-3.10;99.90
52513;DHT22;38422;53.172;6.974;2022-12-18T00:19:17;-3.10;99.90
52513;DHT22;38422;53.172;6.974;2022-12-18T00:21:43;-3.10;99.90
52513;DHT22;38422;53.172;6.974;2022-12-18T00:24:10;-3.10;99.90
52513;DHT22;38422;53.172;6.974;2022-12-18T00:26:37;-3.10;99.90
52513;DHT22;38422;53.172;6.974;2022-12-18T00:29:10;-3.20;99.90
52513;DHT22;38422;53.172;6.974;2022-12-18T00:31:37;-3.20;99.90
52513;DHT22;38422;53.172;6.974;2022-12-18T00:34:03;-3.20;99.90
52513;DHT22;38422;53.172;6.974;2022-12-18T00:36:31;-3.20;99.90
52513;DHT22;38422;53.172;6.974;2022-12-18T00:38:59;-3.20;99.90
52513;DHT22;38422;53.172;6.974;2022-12-18T00:41:26;-3.30;99.90
52513;DHT22;38422;53.172;6.974;2022-12-18T00:44:12;-3.30;99.90
52513;DHT22;38422;53.172;6.974;2022-12-18T00:46:38;-3.30;99.90
52513;DHT22;38422;53.172;6.974;2022-12-18T00:49:04;-3.40;99.90
52513;DHT22;38422;53.172;6.974;2022-12-18T00:51:30;-3.30;99.90
52513;DHT22;38422;53.172;6.974;2022-12-18T00:53:56;-3.40;99.90
52513;DHT22;38422;53.172;6.974;2022-12-18T00:56:22;-3.40;99.90
52513;DHT22;38422;53.172;6.974;2022-12-18T00:58:49;-3.40;99.90
52513;DHT22;38422;53.172;6.974;2022-12-18T01:01:15;-3.50;99.90
52513;DHT22;38422;53.172;6.974;2022-12-18T01:03:41;-3.50;99.90
52513;DHT22;38422;53.172;6.974;2022-12-18T01:06:08;-3.50;99.90
52513;DHT22;38422;53.172;6.974;2022-12-18T01:08:35;-3.50;99.90
52513;DHT22;38422;53.172;6.974;2022-12-18T01:11:06;-3.50;99.90
52513;DHT22;38422;53.172;6.974;2022-12-18T01:13:32;-3.50;99.90
52513;DHT22;38422;53.172;6.974;2022-12-18T01:15:57;-3.50;99.90
52513;DHT22;38422;53.172;6.974;2022-12-18T01:18:24;-3.50;99.90
52513;DHT22;38422;53.172;6.974;2022-12-18T01:20:50;-3.50;99.90
52513;DHT22;38422;53.172;6.974;2022-12-18T01:23:16;-3.50;99.90
52513;DHT22;38422;53.172;6.974;2022-12-18T01:25:41;-3.50;99.90
52513;DHT22;38422;53.172;6.974;2022-12-18T01:28:07;-3.50;99.90
52513;DHT22;38422;53.172;6.974;2022-12-18T01:30:33;-3.50;99.90
52513;DHT22;38422;53.172;6.974;2022-12-18T01:32:58;-3.60;99.90
52513;DHT22;38422;53.172;6.974;2022-12-18T01:35:24;-3.60;99.90
52513;DHT22;38422;53.172;6.974;2022-12-18T01:37:54;-3.60;99.90
52513;DHT22;38422;53.172;6.974;2022-12-18T01:40:19;-3.60;99.90
52513;DHT22;38422;53.172;6.974;2022-12-18T01:42:52;-3.60;99.90
52513;DHT22;38422;53.172;6.974;2022-12-18T01:45:23;-3.60;99.90
52513;DHT22;38422;53.172;6.974;2022-12-18T01:47:59;-3.60;99.90
52513;DHT22;38422;53.172;6.974;2022-12-18T01:53:10;-3.60;99.90
52513;DHT22;38422;53.172;6.974;2022-12-18T01:55:44;-3.60;99.90
52513;DHT22;38422;53.172;6.974;2022-12-18T01:58:12;-3.60;99.90
52513;DHT22;38422;53.172;6.974;2022-12-18T02:00:38;-3.60;99.90
52513;DHT22;38422;53.172;6.974;2022-12-18T02:03:04;-3.60;99.90
52513;DHT22;38422;53.172;6.974;2022-12-18T02:11:22;-3.60;99.90
52513;DHT22;38422;53.172;6.974;2022-12-18T02:16:52;-3.60;99.90
52513;DHT22;38422;53.172;6.974;2022-12-18T02:27:42;-3.70;99.90
52513;DHT22;38422;53.172;6.974;2022-12-18T02:30:10;-3.70;99.90
52513;DHT22;38422;53.172;6.974;2022-12-18T02:32:46;-3.80;99.90
52513;DHT22;38422;53.172;6.974;2022-12-18T02:35:17;-3.70;99.90
52513;DHT22;38422;53.172;6.974;2022-12-18T02:37:46;-3.80;99.90
52513;DHT22;38422;53.172;6.974;2022-12-18T02:40:12;-3.70;99.90
52513;DHT22;38422;53.172;6.974;2022-12-18T02:42:39;-3.80;99.90
52513;DHT22;38422;53.172;6.974;2022-12-18T02:45:05;-3.80;99.90
52513;DHT22;38422;53.172;6.974;2022-12-18T02:47:35;-3.80;99.90
52513;DHT22;38422;53.172;6.974;2022-12-18T02:53:18;-3.80;99.90
52513;DHT22;38422;53.172;6.974;2022-12-18T02:56:01;-3.80;99.90
52513;DHT22;38422;53.172;6.974;2022-12-18T03:04:12;-3.90;99.90
52513;DHT22;38422;53.172;6.974;2022-12-18T03:06:43;-3.90;99.90
52513;DHT22;38422;53.172;6.974;2022-12-18T03:09:14;-3.90;99.90
52513;DHT22;38422;53.172;6.974;2022-12-18T03:11:46;-3.90;99.90
52513;DHT22;38422;53.172;6.974;2022-12-18T03:14:33;-3.90;99.90
52513;DHT22;38422;53.172;6.974;2022-12-18T03:17:01;-3.90;99.90
52513;DHT22;38422;53.172;6.974;2022-12-18T03:19:29;-3.90;99.90
52513;DHT22;38422;53.172;6.974;2022-12-18T03:21:57;-4.00;99.90
52513;DHT22;38422;53.172;6.974;2022-12-18T03:24:26;-4.00;99.90
52513;DHT22;38422;53.172;6.974;2022-12-18T03:26:57;-4.00;99.90
52513;DHT22;38422;53.172;6.974;2022-12-18T03:29:28;-4.10;99.90
52513;DHT22;38422;53.172;6.974;2022-12-18T03:32:03;-4.10;99.90
52513;DHT22;38422;53.172;6.974;2022-12-18T03:34:32;-4.00;99.90
52513;DHT22;38422;53.172;6.974;2022-12-18T03:36:59;-4.10;99.90
52513;DHT22;38422;53.172;6.974;2022-12-18T03:39:25;-4.10;99.90
52513;DHT22;38422;53.172;6.974;2022-12-18T03:42:07;-4.10;99.90
52513;DHT22;38422;53.172;6.974;2022-12-18T03:44:54;-4.20;99.90
52513;DHT22;38422;53.172;6.974;2022-12-18T03:47:58;-4.20;99.90
52513;DHT22;38422;53.172;6.974;2022-12-18T03:53:40;-4.30;99.90
52513;DHT22;38422;53.172;6.974;2022-12-18T03:56:09;-4.40;99.90
52513;DHT22;38422;53.172;6.974;2022-12-18T03:58:37;-4.40;99.90
52513;DHT22;38422;53.172;6.974;2022-12-18T04:01:09;-4.40;99.90
52513;DHT22;38422;53.172;6.974;2022-12-18T04:03:36;-4.40;99.90
52513;DHT22;38422;53.172;6.974;2022-12-18T04:06:03;-4.50;99.90
52513;DHT22;38422;53.172;6.974;2022-12-18T04:08:33;-4.60;99.90
52513;DHT22;38422;53.172;6.974;2022-12-18T04:11:01;-4.60;99.90
52513;DHT22;38422;53.172;6.974;2022-12-18T04:13:34;-4.60;99.90
52513;DHT22;38422;53.172;6.974;2022-12-18T04:16:00;-4.60;99.90
52513;DHT22;38422;53.172;6.974;2022-12-18T04:18:26;-4.60;99.90
52513;DHT22;38422;53.172;6.974;2022-12-18T04:20:52;-4.50;99.90
52513;DHT22;38422;53.172;6.974;2022-12-18T04:23:18;-4.60;99.90
52513;DHT22;38422;53.172;6.974;2022-12-18T04:25:44;-4.60;99.90
52513;DHT22;38422;53.172;6.974;2022-12-18T04:28:09;-4.60;99.90
52513;DHT22;38422;53.172;6.974;2022-12-18T04:30:35;-4.60;99.90
52513;DHT22;38422;53.172;6.974;2022-12-18T04:33:00;-4.70;99.90
52513;DHT22;38422;53.172;6.974;2022-12-18T04:35:26;-4.60;99.90
52513;DHT22;38422;53.172;6.974;2022-12-18T04:37:52;-4.60;99.90
52513;DHT22;38422;53.172;6.974;2022-12-18T04:40:18;-4.60;99.90
52513;DHT22;38422;53.172;6.974;2022-12-18T04:42:43;-4.60;99.90
52513;DHT22;38422;53.172;6.974;2022-12-18T04:45:09;-4.70;99.90
52513;DHT22;38422;53.172;6.974;2022-12-18T04:47:35;-4.70;99.90
52513;DHT22;38422;53.172;6.974;2022-12-18T04:50:01;-4.70;99.90
52513;DHT22;38422;53.172;6.974;2022-12-18T04:52:26;-4.70;99.90
52513;DHT22;38422;53.172;6.974;2022-12-18T04:54:52;-4.80;99.90
52513;DHT22;38422;53.172;6.974;2022-12-18T04:57:18;-4.80;99.90
52513;DHT22;38422;53.172;6.974;2022-12-18T04:59:44;-4.80;99.90
52513;DHT22;38422;53.172;6.974;2022-12-18T05:02:10;-4.80;99.90
52513;DHT22;38422;53.172;6.974;2022-12-18T05:04:36;-4.80;99.90
52513;DHT22;38422;53.172;6.974;2022-12-18T05:07:01;-4.80;99.90
52513;DHT22;38422;53.172;6.974;2022-12-18T05:09:27;-4.80;99.90
52513;DHT22;38422;53.172;6.974;2022-12-18T05:11:53;-4.80;99.90
52513;DHT22;38422;53.172;6.974;2022-12-18T05:14:19;-4.80;99.90
52513;DHT22;38422;53.172;6.974;2022-12-18T05:16:44;-4.80;99.90
52513;DHT22;38422;53.172;6.974;2022-12-18T05:19:10;-4.80;99.90
52513;DHT22;38422;53.172;6.974;2022-12-18T05:21:36;-4.80;99.90
52513;DHT22;38422;53.172;6.974;2022-12-18T05:24:02;-4.90;99.90
52513;DHT22;38422;53.172;6.974;2022-12-18T05:26:27;-4.90;99.90
52513;DHT22;38422;53.172;6.974;2022-12-18T05:28:53;-4.90;99.90
52513;DHT22;38422;53.172;6.974;2022-12-18T05:31:19;-4.90;99.90
52513;DHT22;38422;53.172;6.974;2022-12-18T05:33:44;-4.90;99.90
52513;DHT22;38422;53.172;6.974;2022-12-18T05:36:10;-4.90;99.90
52513;DHT22;38422;53.172;6.974;2022-12-18T05:38:38;-4.90;99.90
52513;DHT22;38422;53.172;6.974;2022-12-18T05:41:04;-5.00;99.90
52513;DHT22;38422;53.172;6.974;2022-12-18T05:43:33;-5.00;99.90
52513;DHT22;38422;53.172;6.974;2022-12-18T05:46:03;-5.00;99.90
52513;DHT22;38422;53.172;6.974;2022-12-18T05:48:29;-5.00;99.90
52513;DHT22;38422;53.172;6.974;2022-12-18T05:50:55;-5.00;99.90
52513;DHT22;38422;53.172;6.974;2022-12-18T05:53:20;-5.00;99.90
52513;DHT22;38422;53.172;6.974;2022-12-18T05:55:47;-5.00;99.90
52513;DHT22;38422;53.172;6.974;2022-12-18T05:58:13;-5.00;99.90
52513;DHT22;38422;53.172;6.974;2022-12-18T06:00:41;-4.90;99.90
52513;DHT22;38422;53.172;6.974;2022-12-18T06:03:09;-4.90;99.90
52513;DHT22;38422;53.172;6.974;2022-12-18T06:05:40;-4.90;99.90
52513;DHT22;38422;53.172;6.974;2022-12-18T06:08:06;-4.90;99.90
52513;DHT22;38422;53.172;6.974;2022-12-18T06:10:31;-5.00;99.90
52513;DHT22;38422;53.172;6.974;2022-12-18T06:12:57;-5.00;99.90
52513;DHT22;38422;53.172;6.974;2022-12-18T06:15:23;-4.90;99.90
52513;DHT22;38422;53.172;6.974;2022-12-18T06:17:50;-4.90;99.90
52513;DHT22;38422;53.172;6.974;2022-12-18T06:20:15;-4.90;99.90
52513;DHT22;38422;53.172;6.974;2022-12-18T06:22:41;-4.90;99.90
52513;DHT22;38422;53.172;6.974;2022-12-18T06:25:07;-4.90;99.90
52513;DHT22;38422;53.172;6.974;2022-12-18T06:27:33;-4.90;99.90
52513;DHT22;38422;53.172;6.974;2022-12-18T06:30:00;-4.90;99.90
52513;DHT22;38422;53.172;6.974;2022-12-18T06:32:26;-5.00;99.90
52513;DHT22;38422;53.172;6.974;2022-12-18T06:34:52;-5.00;99.90
52513;DHT22;38422;53.172;6.974;2022-12-18T06:37:19;-5.00;99.90
52513;DHT22;38422;53.172;6.974;2022-12-18T06:39:45;-5.00;99.90
52513;DHT22;38422;53.172;6.974;2022-12-18T06:42:10;-5.00;99.90
52513;DHT22;38422;53.172;6.974;2022-12-18T06:44:36;-5.10;99.90
52513;DHT22;38422;53.172;6.974;2022-12-18T06:47:02;-5.10;99.90
52513;DHT22;38422;53.172;6.974;2022-12-18T06:49:28;-5.10;99.90
52513;DHT22;38422;53.172;6.974;2022-12-18T06:51:53;-5.10;99.90
52513;DHT22;38422;53.172;6.974;2022-12-18T06:54:19;-5.10;99.90
52513;DHT22;38422;53.172;6.974;2022-12-18T06:56:45;-5.10;99.90
52513;DHT22;38422;53.172;6.974;2022-12-18T06:59:13;-5.10;99.90
52513;DHT22;38422;53.172;6.974;2022-12-18T07:01:38;-5.10;99.90
52513;DHT22;38422;53.172;6.974;2022-12-18T07:04:04;-5.20;99.90
52513;DHT22;38422;53.172;6.974;2022-12-18T07:06:30;-5.20;99.90
52513;DHT22;38422;53.172;6.974;2022-12-18T07:08:56;-5.20;99.90
52513;DHT22;38422;53.172;6.974;2022-12-18T07:11:22;-5.20;99.90
52513;DHT22;38422;53.172;6.974;2022-12-18T07:13:48;-5.20;99.90
52513;DHT22;38422;53.172;6.974;2022-12-18T07:16:19;-5.20;99.90
52513;DHT22;38422;53.172;6.974;2022-12-18T07:18:46;-5.20;99.90
52513;DHT22;38422;53.172;6.974;2022-12-18T07:21:18;-5.30;99.90
52513;DHT22;38422;53.172;6.974;2022-12-18T07:23:44;-5.30;99.90
52513;DHT22;38422;53.172;6.974;2022-12-18T07:26:14;-5.30;99.90
52513;DHT22;38422;53.172;6.974;2022-12-18T07:28:41;-5.30;99.90
52513;DHT22;38422;53.172;6.974;2022-12-18T07:31:11;-5.30;99.90
52513;DHT22;38422;53.172;6.974;2022-12-18T07:33:37;-5.30;99.90
52513;DHT22;38422;53.172;6.974;2022-12-18T07:36:04;-5.30;99.90
52513;DHT22;38422;53.172;6.974;2022-12-18T07:38:32;-5.30;99.90
52513;DHT22;38422;53.172;6.974;2022-12-18T07:41:12;-5.30;99.90
52513;DHT22;38422;53.172;6.974;2022-12-18T07:43:39;-5.30;99.90
52513;DHT22;38422;53.172;6.974;2022-12-18T07:46:05;-5.30;99.90
52513;DHT22;38422;53.172;6.974;2022-12-18T07:48:31;-5.30;99.90
52513;DHT22;38422;53.172;6.974;2022-12-18T07:51:01;-5.30;99.90
52513;DHT22;38422;53.172;6.974;2022-12-18T07:53:27;-5.30;99.90
52513;DHT22;38422;53.172;6.974;2022-12-18T07:56:01;-5.40;99.90
52513;DHT22;38422;53.172;6.974;2022-12-18T07:58:28;-5.40;99.90
52513;DHT22;38422;53.172;6.974;2022-12-18T08:00:53;-5.30;99.90
52513;DHT22;38422;53.172;6.974;2022-12-18T08:03:19;-5.30;99.90
52513;DHT22;38422;53.172;6.974;2022-12-18T08:05:45;-5.30;99.90
52513;DHT22;38422;53.172;6.974;2022-12-18T08:08:11;-5.20;99.90
52513;DHT22;38422;53.172;6.974;2022-12-18T08:10:37;-5.20;99.90
52513;DHT22;38422;53.172;6.974;2022-12-18T08:13:03;-5.10;99.90
52513;DHT22;38422;53.172;6.974;2022-12-18T08:15:29;-5.10;99.90
52513;DHT22;38422;53.172;6.974;2022-12-18T08:17:58;-5.10;99.90
52513;DHT22;38422;53.172;6.974;2022-12-18T08:20:23;-5.10;99.90
52513;DHT22;38422;53.172;6.974;2022-12-18T08:22:49;-5.10;99.90
52513;DHT22;38422;53.172;6.974;2022-12-18T08:25:15;-5.00;99.90
52513;DHT22;38422;53.172;6.974;2022-12-18T08:27:40;-5.00;99.90
52513;DHT22;38422;53.172;6.974;2022-12-18T08:30:07;-5.00;99.90
52513;DHT22;38422;53.172;6.974;2022-12-18T08:32:32;-4.90;99.90
52513;DHT22;38422;53.172;6.974;2022-12-18T08:34:59;-4.90;99.90
52513;DHT22;38422;53.172;6.974;2022-12-18T08:37:24;-4.90;99.90
52513;DHT22;38422;53.172;6.974;2022-12-18T08:39:50;-4.90;99.90
52513;DHT22;38422;53.172;6.974;2022-12-18T08:42:16;-4.90;99.90
52513;DHT22;38422;53.172;6.974;2022-12-18T08:45:00;-4.80;99.90
52513;DHT22;38422;53.172;6.974;2022-12-18T08:47:26;-4.80;99.90
52513;DHT22;38422;53.172;6.974;2022-12-18T08:49:51;-4.80;99.90
52513;DHT22;38422;53.172;6.974;2022-12-18T08:52:17;-4.80;99.90
52513;DHT22;38422;53.172;6.974;2022-12-18T08:54:43;-4.70;99.90
52513;DHT22;38422;53.172;6.974;2022-12-18T08:57:09;-4.70;99.90
52513;DHT22;38422;53.172;6.974;2022-12-18T08:59:34;-4.70;99.90
52513;DHT22;38422;53.172;6.974;2022-12-18T09:02:00;-4.60;99.90
52513;DHT22;38422;53.172;6.974;2022-12-18T09:04:26;-4.60;99.90
52513;DHT22;38422;53.172;6.974;2022-12-18T09:06:51;-4.60;99.90
52513;DHT22;38422;53.172;6.974;2022-12-18T09:09:17;-4.50;99.90
52513;DHT22;38422;53.172;6.974;2022-12-18T09:11:43;-4.50;99.90
52513;DHT22;38422;53.172;6.974;2022-12-18T09:14:09;-4.50;99.90
52513;DHT22;38422;53.172;6.974;2022-12-18T09:16:35;-4.40;99.90
52513;DHT22;38422;53.172;6.974;2022-12-18T09:19:02;-4.40;99.90
52513;DHT22;38422;53.172;6.974;2022-12-18T09:21:31;-4.30;99.90
52513;DHT22;38422;53.172;6.974;2022-12-18T09:23:57;-4.30;99.90
52513;DHT22;38422;53.172;6.974;2022-12-18T09:26:24;-4.40;99.90
52513;DHT22;38422;53.172;6.974;2022-12-18T09:28:50;-4.30;99.90
52513;DHT22;38422;53.172;6.974;2022-12-18T09:31:17;-4.20;99.90
52513;DHT22;38422;53.172;6.974;2022-12-18T09:33:43;-4.20;99.90
52513;DHT22;38422;53.172;6.974;2022-12-18T09:36:13;-4.20;99.90
52513;DHT22;38422;53.172;6.974;2022-12-18T09:38:39;-4.20;99.90
52513;DHT22;38422;53.172;6.974;2022-12-18T09:47:04;-3.90;99.90
52513;DHT22;38422;53.172;6.974;2022-12-18T09:49:34;-3.80;99.90
52513;DHT22;38422;53.172;6.974;2022-12-18T09:52:09;-3.70;99.90
52513;DHT22;38422;53.172;6.974;2022-12-18T09:54:39;-3.70;99.90
52513;DHT22;38422;53.172;6.974;2022-12-18T09:57:05;-3.60;99.90
52513;DHT22;38422;53.172;6.974;2022-12-18T09:59:37;-3.60;99.90
52513;DHT22;38422;53.172;6.974;2022-12-18T10:02:15;-3.60;99.90
52513;DHT22;38422;53.172;6.974;2022-12-18T10:04:42;-3.50;99.90
52513;DHT22;38422;53.172;6.974;2022-12-18T10:10:13;-3.40;99.90
52513;DHT22;38422;53.172;6.974;2022-12-18T10:13:02;-3.50;99.90
52513;DHT22;38422;53.172;6.974;2022-12-18T10:21:34;-3.30;99.90
52513;DHT22;38422;53.172;6.974;2022-12-18T10:24:32;-3.20;99.90
52513;DHT22;38422;53.172;6.974;2022-12-18T10:27:17;-3.10;99.90
52513;DHT22;38422;53.172;6.974;2022-12-18T10:29:44;-3.00;99.90
52513;DHT22;38422;53.172;6.974;2022-12-18T10:32:18;-2.90;99.90
52513;DHT22;38422;53.172;6.974;2022-12-18T10:34:49;-2.80;99.90
52513;DHT22;38422;53.172;6.974;2022-12-18T10:37:18;-2.80;99.90
52513;DHT22;38422;53.172;6.974;2022-12-18T10:39:46;-2.70;99.90
52513;DHT22;38422;53.172;6.974;2022-12-18T10:42:19;-2.70;99.90
52513;DHT22;38422;53.172;6.974;2022-12-18T10:44:45;-2.60;99.90
52513;DHT22;38422;53.172;6.974;2022-12-18T10:47:14;-2.50;99.90
52513;DHT22;38422;53.172;6.974;2022-12-18T10:49:52;-2.50;99.90
52513;DHT22;38422;53.172;6.974;2022-12-18T10:52:21;-2.50;99.90
52513;DHT22;38422;53.172;6.974;2022-12-18T10:54:55;-2.50;99.90
52513;DHT22;38422;53.172;6.974;2022-12-18T10:57:36;-2.50;99.90
52513;DHT22;38422;53.172;6.974;2022-12-18T11:00:24;-2.50;99.90
52513;DHT22;38422;53.172;6.974;2022-12-18T11:02:51;-2.40;99.90
52513;DHT22;38422;53.172;6.974;2022-12-18T11:05:25;-2.40;99.90
52513;DHT22;38422;53.172;6.974;2022-12-18T11:07:51;-2.30;99.90
52513;DHT22;38422;53.172;6.974;2022-12-18T11:10:21;-2.30;99.90
52513;DHT22;38422;53.172;6.974;2022-12-18T11:12:47;-2.30;99.90
52513;DHT22;38422;53.172;6.974;2022-12-18T11:15:20;-2.30;99.90
52513;DHT22;38422;53.172;6.974;2022-12-18T11:17:48;-2.20;99.90
52513;DHT22;38422;53.172;6.974;2022-12-18T11:20:30;-2.20;99.90
52513;DHT22;38422;53.172;6.974;2022-12-18T11:23:05;-2.20;99.90
52513;DHT22;38422;53.172;6.974;2022-12-18T11:25:36;-2.20;99.90
52513;DHT22;38422;53.172;6.974;2022-12-18T11:28:05;-2.10;99.90
52513;DHT22;38422;53.172;6.974;2022-12-18T11:30:35;-2.10;99.90
52513;DHT22;38422;53.172;6.974;2022-12-18T11:33:21;-2.10;99.90
52513;DHT22;38422;53.172;6.974;2022-12-18T11:35:51;-2.00;99.90
52513;DHT22;38422;53.172;6.974;2022-12-18T11:38:28;-2.00;99.90
52513;DHT22;38422;53.172;6.974;2022-12-18T11:40:56;-2.00;99.90
52513;DHT22;38422;53.172;6.974;2022-12-18T11:43:38;-2.00;99.90
52513;DHT22;38422;53.172;6.974;2022-12-18T11:46:15;-2.00;99.90
52513;DHT22;38422;53.172;6.974;2022-12-18T11:48:52;-2.00;99.90
52513;DHT22;38422;53.172;6.974;2022-12-18T11:51:33;-2.00;99.90
52513;DHT22;38422;53.172;6.974;2022-12-18T11:54:01;-2.00;99.90
52513;DHT22;38422;53.172;6.974;2022-12-18T11:56:36;-1.90;99.90
52513;DHT22;38422;53.172;6.974;2022-12-18T12:13:22;-1.80;99.90
52513;DHT22;38422;53.172;6.974;2022-12-18T12:26:07;-1.70;99.90
52513;DHT22;38422;53.172;6.974;2022-12-18T12:39:36;-1.60;99.90
52513;DHT22;38422;53.172;6.974;2022-12-18T12:42:04;-1.60;99.90
52513;DHT22;38422;53.172;6.974;2022-12-18T12:44:56;-1.60;99.90
52513;DHT22;38422;53.172;6.974;2022-12-18T12:47:31;-1.50;99.90
52513;DHT22;38422;53.172;6.974;2022-12-18T12:50:00;-1.50;99.90
52513;DHT22;38422;53.172;6.974;2022-12-18T12:52:38;-1.50;99.90
52513;DHT22;38422;53.172;6.974;2022-12-18T12:55:07;-1.50;99.90
52513;DHT22;38422;53.172;6.974;2022-12-18T12:57:40;-1.50;99.90
52513;DHT22;38422;53.172;6.974;2022-12-18T13:02:42;-1.40;99.90
52513;DHT22;38422;53.172;6.974;2022-12-18T13:05:20;-1.40;99.90
52513;DHT22;38422;53.172;6.974;2022-12-18T13:08:02;-1.40;99.90
52513;DHT22;38422;53.172;6.974;2022-12-18T13:10:37;-1.40;99.90
52513;DHT22;38422;53.172;6.974;2022-12-18T13:13:11;-1.40;99.90
52513;DHT22;38422;53.172;6.974;2022-12-18T13:16:03;-1.40;99.90
52513;DHT22;38422;53.172;6.974;2022-12-18T13:18:30;-1.40;99.90
52513;DHT22;38422;53.172;6.974;2022-12-18T13:25:52;-1.40;99.90
52513;DHT22;38422;53.172;6.974;2022-12-18T13:34:24;-1.40;99.90
52513;DHT22;38422;53.172;6.974;2022-12-18T13:36:52;-1.40;99.90
52513;DHT22;38422;53.172;6.974;2022-12-18T13:41:45;-1.40;99.90
52513;DHT22;38422;53.172;6.974;2022-12-18T13:46:44;-1.40;99.90
52513;DHT22;38422;53.172;6.974;2022-12-18T13:51:53;-1.40;99.90
52513;DHT22;38422;53.172;6.974;2022-12-18T13:54:36;-1.40;99.90
52513;DHT22;38422;53.172;6.974;2022-12-18T13:57:04;-1.40;99.90
52513;DHT22;38422;53.172;6.974;2022-12-18T14:02:01;-1.50;99.90
52513;DHT22;38422;53.172;6.974;2022-12-18T14:04:34;-1.50;99.90
52513;DHT22;38422;53.172;6.974;2022-12-18T14:07:06;-1.60;99.90
52513;DHT22;38422;53.172;6.974;2022-12-18T14:09:44;-1.60;99.90
52513;DHT22;38422;53.172;6.974;2022-12-18T14:12:31;-1.60;99.90
52513;DHT22;38422;53.172;6.974;2022-12-18T14:17:55;-1.60;99.90
52513;DHT22;38422;53.172;6.974;2022-12-18T14:20:23;-1.60;99.90
52513;DHT22;38422;53.172;6.974;2022-12-18T14:22:49;-1.60;99.90
52513;DHT22;38422;53.172;6.974;2022-12-18T14:25:20;-1.70;99.90
52513;DHT22;38422;53.172;6.974;2022-12-18T14:27:50;-1.70;99.90
52513;DHT22;38422;53.172;6.974;2022-12-18T14:30:27;-1.70;99.90
52513;DHT22;38422;53.172;6.974;2022-12-18T14:33:21;-1.70;99.90
52513;DHT22;38422;53.172;6.974;2022-12-18T14:36:00;-1.70;99.90
52513;DHT22;38422;53.172;6.974;2022-12-18T14:41:13;-1.80;99.90
52513;DHT22;38422;53.172;6.974;2022-12-18T14:43:41;-1.80;99.90
52513;DHT22;38422;53.172;6.974;2022-12-18T14:48:56;-1.80;99.90
52513;DHT22;38422;53.172;6.974;2022-12-18T14:51:24;-1.90;99.90
52513;DHT22;38422;53.172;6.974;2022-12-18T14:54:00;-1.90;99.90
52513;DHT22;38422;53.172;6.974;2022-12-18T14:56:32;-1.90;99.90
52513;DHT22;38422;53.172;6.974;2022-12-18T14:59:11;-1.90;99.90
52513;DHT22;38422;53.172;6.974;2022-12-18T15:01:59;-1.90;99.90
52513;DHT22;38422;53.172;6.974;2022-12-18T15:04:36;-1.90;99.90
52513;DHT22;38422;53.172;6.974;2022-12-18T15:07:18;-2.00;99.90
52513;DHT22;38422;53.172;6.974;2022-12-18T15:12:37;-2.00;99.90
52513;DHT22;38422;53.172;6.974;2022-12-18T15:15:04;-2.00;99.90
52513;DHT22;38422;53.172;6.974;2022-12-18T15:17:30;-2.00;99.90
52513;DHT22;38422;53.172;6.974;2022-12-18T15:20:02;-2.00;99.90
52513;DHT22;38422;53.172;6.974;2022-12-18T15:22:30;-2.00;99.90
52513;DHT22;38422;53.172;6.974;2022-12-18T15:24:59;-2.00;99.90
52513;DHT22;38422;53.172;6.974;2022-12-18T15:27:35;-2.00;99.90
52513;DHT22;38422;53.172;6.974;2022-12-18T15:32:38;-2.00;99.90
52513;DHT22;38422;53.172;6.974;2022-12-18T15:37:39;-2.00;99.90
52513;DHT22;38422;53.172;6.974;2022-12-18T15:40:06;-2.00;99.90
52513;DHT22;38422;53.172;6.974;2022-12-18T15:42:32;-2.00;99.90
52513;DHT22;38422;53.172;6.974;2022-12-18T15:45:16;-2.10;99.90
52513;DHT22;38422;53.172;6.974;2022-12-18T15:47:42;-2.10;99.90
52513;DHT22;38422;53.172;6.974;2022-12-18T15:50:08;-2.10;99.90
52513;DHT22;38422;53.172;6.974;2022-12-18T15:52:45;-2.10;99.90
52513;DHT22;38422;53.172;6.974;2022-12-18T15:55:15;-2.00;99.90
52513;DHT22;38422;53.172;6.974;2022-12-18T15:58:00;-2.00;99.90
52513;DHT22;38422;53.172;6.974;2022-12-18T16:00:26;-2.00;99.90
52513;DHT22;38422;53.172;6.974;2022-12-18T16:02:52;-2.10;99.90
52513;DHT22;38422;53.172;6.974;2022-12-18T16:05:20;-2.10;99.90
52513;DHT22;38422;53.172;6.974;2022-12-18T16:07:47;-2.00;99.90
52513;DHT22;38422;53.172;6.974;2022-12-18T16:10:13;-2.00;99.90
52513;DHT22;38422;53.172;6.974;2022-12-18T16:12:40;-2.00;99.90
52513;DHT22;38422;53.172;6.974;2022-12-18T16:15:06;-2.00;99.90
52513;DHT22;38422;53.172;6.974;2022-12-18T16:17:32;-2.00;99.90
52513;DHT22;38422;53.172;6.974;2022-12-18T16:19:58;-2.00;99.90
52513;DHT22;38422;53.172;6.974;2022-12-18T16:22:29;-2.00;99.90
52513;DHT22;38422;53.172;6.974;2022-12-18T16:24:56;-2.00;99.90
52513;DHT22;38422;53.172;6.974;2022-12-18T16:27:23;-2.00;99.90
52513;DHT22;38422;53.172;6.974;2022-12-18T16:29:49;-2.00;99.90
52513;DHT22;38422;53.172;6.974;2022-12-18T16:32:17;-2.00;99.90
52513;DHT22;38422;53.172;6.974;2022-12-18T16:34:43;-1.90;99.90
52513;DHT22;38422;53.172;6.974;2022-12-18T16:37:11;-2.00;99.90
52513;DHT22;38422;53.172;6.974;2022-12-18T16:39:38;-1.90;99.90
52513;DHT22;38422;53.172;6.974;2022-12-18T16:42:09;-1.90;99.90
52513;DHT22;38422;53.172;6.974;2022-12-18T16:44:37;-1.90;99.90
52513;DHT22;38422;53.172;6.974;2022-12-18T16:47:03;-1.90;99.90
52513;DHT22;38422;53.172;6.974;2022-12-18T16:49:29;-1.90;99.90
52513;DHT22;38422;53.172;6.974;2022-12-18T16:51:55;-1.90;99.90
52513;DHT22;38422;53.172;6.974;2022-12-18T16:54:21;-1.80;99.90
52513;DHT22;38422;53.172;6.974;2022-12-18T16:56:47;-1.80;99.90
52513;DHT22;38422;53.172;6.974;2022-12-18T16:59:15;-1.80;99.90
52513;DHT22;38422;53.172;6.974;2022-12-18T17:01:41;-1.80;99.90
52513;DHT22;38422;53.172;6.974;2022-12-18T17:04:07;-1.70;99.90
52513;DHT22;38422;53.172;6.974;2022-12-18T17:06:35;-1.70;99.90
52513;DHT22;38422;53.172;6.974;2022-12-18T17:09:10;-1.70;99.90
52513;DHT22;38422;53.172;6.974;2022-12-18T17:11:36;-1.70;99.90
52513;DHT22;38422;53.172;6.974;2022-12-18T17:14:10;-1.70;99.90
52513;DHT22;38422;53.172;6.974;2022-12-18T17:16:37;-1.60;99.90
52513;DHT22;38422;53.172;6.974;2022-12-18T17:19:03;-1.60;99.90
52513;DHT22;38422;53.172;6.974;2022-12-18T17:21:29;-1.60;99.90
52513;DHT22;38422;53.172;6.974;2022-12-18T17:23:58;-1.60;99.90
52513;DHT22;38422;53.172;6.974;2022-12-18T17:26:24;-1.60;99.90
52513;DHT22;38422;53.172;6.974;2022-12-18T17:28:50;-1.60;99.90
52513;DHT22;38422;53.172;6.974;2022-12-18T17:31:20;-1.50;99.90
52513;DHT22;38422;53.172;6.974;2022-12-18T17:33:47;-1.50;99.90
52513;DHT22;38422;53.172;6.974;2022-12-18T17:36:13;-1.50;99.90
52513;DHT22;38422;53.172;6.974;2022-12-18T17:38:39;-1.50;99.90
52513;DHT22;38422;53.172;6.974;2022-12-18T17:41:10;-1.50;99.90
52513;DHT22;38422;53.172;6.974;2022-12-18T17:43:36;-1.50;99.90
52513;DHT22;38422;53.172;6.974;2022-12-18T17:46:04;-1.50;99.90